createdAt,value
2023-05-16T00:01:46.225Z,97888.41
2023-05-16T00:04:13.664Z,97888.41
2023-05-16T00:06:41.374Z,97889.25
2023-05-16T00:09:08.907Z,97882.22
2023-05-16T00:11:36.471Z,97889.41
2023-05-16T00:14:03.875Z,97892.91
2023-05-16T00:16:31.560Z,97886.75
2023-05-16T00:18:59.835Z,97886.75
2023-05-16T00:21:27.487Z,97882.47
2023-05-16T00:23:54.976Z,97879.78
2023-05-16T00:26:22.596Z,97890.47
2023-05-16T00:28:49.912Z,97892.09
2023-05-16T00:31:17.634Z,97889.63
2023-05-16T00:33:45.020Z,97890.47
2023-05-16T00:36:12.669Z,97891.47
2023-05-16T00:38:40.532Z,97888.81
2023-05-16T00:41:08.067Z,97888.81
2023-05-16T00:43:35.322Z,97894.16
2023-05-16T00:46:02.958Z,97903.22
2023-05-16T00:48:30.279Z,97899.50
2023-05-16T00:50:58.201Z,97891.69
2023-05-16T00:53:25.835Z,97896.22
2023-05-16T00:55:53.520Z,97896.22
2023-05-16T00:58:22.734Z,97885.56
2023-05-16T01:00:50.507Z,97886.59
2023-05-16T01:03:18.470Z,97895.41
2023-05-16T01:05:46.949Z,97890.88
2023-05-16T01:08:14.287Z,97884.75
2023-05-16T01:11:05.291Z,97883.13
2023-05-16T01:13:48.517Z,97889.28
2023-05-16T01:16:31.390Z,97892.97
2023-05-16T01:19:20.681Z,97893.78
2023-05-16T01:21:52.983Z,97893.78
2023-05-16T01:24:32.531Z,97889.47
2023-05-16T01:27:00.664Z,97886.00
2023-05-16T01:29:27.989Z,97888.66
2023-05-16T01:31:55.547Z,97880.66
2023-05-16T01:34:22.903Z,97882.53
2023-05-16T01:37:25.660Z,97879.03
2023-05-16T01:40:12.815Z,97879.03
2023-05-16T01:42:45.566Z,97892.34
2023-05-16T01:45:23.611Z,97895.03
2023-05-16T01:48:02.039Z,97886.22
2023-05-16T01:50:34.190Z,97881.94
2023-05-16T01:53:11.306Z,97890.75
2023-05-16T01:55:45.867Z,97889.94
2023-05-16T01:58:15.310Z,97891.53
2023-05-16T02:00:43.473Z,97886.41
2023-05-16T02:03:11.241Z,97883.75
2023-05-16T02:05:38.751Z,97886.41
2023-05-16T02:08:06.462Z,97884.81
2023-05-16T02:10:33.739Z,97885.63
2023-05-16T02:13:01.256Z,97885.81
2023-05-16T02:15:28.749Z,97887.47
2023-05-16T02:17:56.661Z,97885.81
2023-05-16T02:20:23.960Z,97888.50
2023-05-16T02:22:51.539Z,97891.16
2023-05-16T02:25:19.200Z,97893.81
2023-05-16T02:27:46.724Z,97899.16
2023-05-16T02:30:14.013Z,97895.69
2023-05-16T02:32:45.078Z,97892.22
2023-05-16T02:35:12.596Z,97908.22
2023-05-16T02:37:41.019Z,97908.22
2023-05-16T02:40:09.356Z,97908.22
2023-05-16T02:42:37.069Z,97899.59
2023-05-16T02:45:04.822Z,97905.75
2023-05-16T02:47:32.449Z,97913.75
2023-05-16T02:49:59.850Z,97915.81
2023-05-16T02:52:27.673Z,97912.94
2023-05-16T02:55:10.011Z,97904.13
2023-05-16T02:57:43.792Z,97904.94
2023-05-16T03:00:11.822Z,97904.94
2023-05-16T03:02:39.524Z,97907.00
2023-05-16T03:05:07.286Z,97908.66
2023-05-16T03:07:34.814Z,97902.47
2023-05-16T03:10:02.130Z,97901.69
2023-05-16T03:12:29.911Z,97902.47
2023-05-16T03:14:57.315Z,97909.69
2023-05-16T03:17:24.788Z,97917.69
2023-05-16T03:19:52.176Z,97914.19
2023-05-16T03:22:20.498Z,97911.53
2023-05-16T03:24:47.999Z,97918.72
2023-05-16T03:27:16.016Z,97923.00
2023-05-16T03:29:43.323Z,97923.00
2023-05-16T03:32:11.784Z,97923.00
2023-05-16T03:34:39.080Z,97926.72
2023-05-16T03:37:06.841Z,97932.06
2023-05-16T03:39:34.177Z,97939.00
2023-05-16T03:42:01.721Z,97939.00
2023-05-16T03:44:29.002Z,97939.63
2023-05-16T03:46:56.534Z,97942.28
2023-05-16T03:49:30.033Z,97938.59
2023-05-16T03:51:57.646Z,97942.88
2023-05-16T03:54:24.859Z,97941.84
2023-05-16T03:56:52.715Z,97926.88
2023-05-16T03:59:20.023Z,97936.50
2023-05-16T04:01:47.869Z,97943.47
2023-05-16T04:04:15.332Z,97950.44
2023-05-16T04:06:43.016Z,97943.28
2023-05-16T04:09:10.246Z,97941.41
2023-05-16T04:11:38.744Z,97942.22
2023-05-16T04:14:06.154Z,97945.69
2023-05-16T04:16:33.954Z,97947.34
2023-05-16T04:19:01.309Z,97943.63
2023-05-16T04:21:28.866Z,97952.69
2023-05-16T04:23:57.564Z,97951.63
2023-05-16T04:26:25.635Z,97955.97
2023-05-16T04:28:53.226Z,97954.91
2023-05-16T04:31:21.945Z,97962.69
2023-05-16T04:33:49.533Z,97975.84
2023-05-16T04:36:17.059Z,97976.63
2023-05-16T04:38:44.340Z,97985.44
2023-05-16T04:41:11.816Z,97976.44
2023-05-16T04:43:40.140Z,97978.25
2023-05-16T04:46:07.859Z,97987.09
2023-05-16T04:48:35.118Z,97981.78
2023-05-16T04:51:03.056Z,97978.91
2023-05-16T04:53:30.359Z,97982.41
2023-05-16T04:55:57.881Z,97994.69
2023-05-16T04:58:25.192Z,97995.50
2023-05-16T05:00:53.234Z,97997.16
2023-05-16T05:03:20.742Z,97988.09
2023-05-16T05:05:48.583Z,97995.91
2023-05-16T05:08:16.501Z,98000.19
2023-05-16T05:10:43.971Z,98000.78
2023-05-16T05:13:11.639Z,98004.84
2023-05-16T05:15:39.104Z,98007.31
2023-05-16T05:18:06.581Z,98014.91
2023-05-16T05:20:34.590Z,98010.19
2023-05-16T05:23:02.342Z,98007.50
2023-05-16T05:25:30.086Z,98009.13
2023-05-16T05:27:58.063Z,98006.47
2023-05-16T05:30:25.562Z,98009.72
2023-05-16T05:32:53.737Z,98014.25
2023-05-16T05:35:21.296Z,98008.06
2023-05-16T05:37:48.787Z,98002.75
2023-05-16T05:40:16.336Z,98005.66
2023-05-16T05:42:46.155Z,97997.63
2023-05-16T05:45:15.957Z,97999.50
2023-05-16T05:47:44.160Z,97994.16
2023-05-16T05:50:16.198Z,98001.94
2023-05-16T05:52:43.625Z,98004.38
2023-05-16T05:55:11.210Z,98008.06
2023-05-16T05:57:39.147Z,98002.75
2023-05-16T06:00:07.309Z,98005.00
2023-05-16T06:02:35.185Z,98004.38
2023-05-16T06:05:02.927Z,98009.72
2023-05-16T06:07:30.215Z,98010.53
2023-05-16T06:09:57.786Z,98013.19
2023-05-16T06:12:25.032Z,98018.53
2023-05-16T06:14:52.493Z,98021.22
2023-05-16T06:17:19.940Z,98021.22
2023-05-16T06:19:47.612Z,98015.88
2023-05-16T06:22:14.861Z,98022.03
2023-05-16T06:24:43.010Z,98016.69
2023-05-16T06:27:10.330Z,98023.66
2023-05-16T06:29:38.010Z,98021.00
2023-05-16T06:32:05.528Z,98015.66
2023-05-16T06:34:33.088Z,98007.66
2023-05-16T06:37:00.805Z,98007.66
2023-05-16T06:39:28.323Z,98001.28
2023-05-16T06:41:56.697Z,98010.94
2023-05-16T06:44:24.468Z,98017.06
2023-05-16T06:46:51.885Z,98012.53
2023-05-16T06:49:19.429Z,98026.50
2023-05-16T06:51:46.837Z,98017.47
2023-05-16T06:54:14.369Z,98012.94
2023-05-16T06:56:41.850Z,98012.72
2023-05-16T06:59:09.418Z,98012.72
2023-05-16T07:01:36.861Z,98009.00
2023-05-16T07:04:04.874Z,98010.66
2023-05-16T07:06:32.404Z,98014.94
2023-05-16T07:08:59.980Z,98026.44
2023-05-16T07:11:27.380Z,98028.91
2023-05-16T07:13:54.937Z,98020.88
2023-05-16T07:16:22.460Z,98026.00
2023-05-16T07:18:50.198Z,98034.84
2023-05-16T07:21:17.567Z,98032.97
2023-05-16T07:23:45.057Z,98034.63
2023-05-16T07:26:12.804Z,98019.41
2023-05-16T07:28:40.326Z,98027.44
2023-05-16T07:31:08.350Z,98037.06
2023-05-16T07:33:36.335Z,98038.69
2023-05-16T07:36:15.536Z,98045.66
2023-05-16T07:38:45.137Z,98043.00
2023-05-16T07:41:12.637Z,98052.66
2023-05-16T07:43:40.257Z,98047.31
2023-05-16T07:46:08.190Z,98056.94
2023-05-16T07:48:37.351Z,98058.81
2023-05-16T07:51:04.876Z,98075.63
2023-05-16T07:53:32.500Z,98069.47
2023-05-16T07:56:00.295Z,98075.63
2023-05-16T07:58:28.149Z,98093.28
2023-05-16T08:00:55.457Z,98100.47
2023-05-16T08:03:23.326Z,98098.63
2023-05-16T08:05:51.735Z,98104.78
2023-05-16T08:08:19.933Z,98105.59
2023-05-16T08:10:47.305Z,98104.59
2023-05-16T08:13:14.890Z,98102.13
2023-05-16T08:15:42.575Z,98105.59
2023-05-16T08:18:15.037Z,98097.59
2023-05-16T08:20:42.725Z,98101.06
2023-05-16T08:23:10.319Z,98097.59
2023-05-16T08:25:37.769Z,98101.91
2023-05-16T08:28:05.343Z,98104.78
2023-05-16T08:30:32.690Z,98103.38
2023-05-16T08:33:04.790Z,98091.66
2023-05-16T08:35:32.655Z,98087.97
2023-05-16T08:38:00.441Z,98100.72
2023-05-16T08:40:28.646Z,98102.56
2023-05-16T08:42:56.657Z,98108.72
2023-05-16T08:45:24.619Z,98112.41
2023-05-16T08:47:56.414Z,98102.31
2023-05-16T08:50:24.927Z,98084.09
2023-05-16T08:52:54.059Z,98084.28
2023-05-16T08:55:22.332Z,98074.44
2023-05-16T08:57:51.616Z,98082.22
2023-05-16T09:00:19.656Z,98091.03
2023-05-16T09:02:47.471Z,98095.38
2023-05-16T09:05:16.463Z,98091.66
2023-05-16T09:07:45.601Z,98086.91
2023-05-16T09:10:13.324Z,98087.50
2023-05-16T09:12:42.172Z,98094.50
2023-05-16T09:15:11.309Z,98098.78
2023-05-16T09:17:43.432Z,98096.72
2023-05-16T09:20:20.627Z,98091.97
2023-05-16T09:22:59.407Z,98086.66
2023-05-16T09:25:31.448Z,98085.00
2023-05-16T09:28:02.359Z,98079.66
2023-05-16T09:30:33.857Z,98082.94
2023-05-16T09:33:02.130Z,98080.25
2023-05-16T09:38:00.591Z,98081.69
2023-05-16T09:40:27.893Z,98087.84
2023-05-16T09:43:06.928Z,98095.66
2023-05-16T09:45:36.497Z,98089.91
2023-05-16T09:48:09.114Z,98090.94
2023-05-16T09:50:37.703Z,98088.25
2023-05-16T09:53:05.748Z,98086.78
2023-05-16T09:55:33.384Z,98086.97
2023-05-16T09:58:01.222Z,98088.59
2023-05-16T10:00:33.609Z,98094.75
2023-05-16T10:03:05.107Z,98083.25
2023-05-16T10:05:33.709Z,98089.84
2023-05-16T10:08:02.913Z,98084.13
2023-05-16T10:10:31.815Z,98090.31
2023-05-16T10:13:02.154Z,98075.50
2023-05-16T10:15:30.309Z,98080.44
2023-05-16T10:18:00.578Z,98073.44
2023-05-16T10:20:28.461Z,98080.19
2023-05-16T10:22:58.748Z,98083.69
2023-05-16T10:25:32.381Z,98083.47
2023-05-16T10:28:00.992Z,98066.63
2023-05-16T10:30:28.697Z,98072.56
2023-05-16T10:32:56.970Z,98075.84
2023-05-16T10:35:24.838Z,98067.63
2023-05-16T10:37:53.303Z,98071.69
2023-05-16T10:40:22.041Z,98067.97
2023-05-16T10:43:00.328Z,98063.47
2023-05-16T10:45:28.057Z,98067.56
2023-05-16T10:47:59.079Z,98069.16
2023-05-16T10:50:44.183Z,98065.47
2023-05-16T10:53:32.596Z,98075.13
2023-05-16T10:55:59.911Z,98073.03
2023-05-16T10:58:33.939Z,98065.84
2023-05-16T11:01:20.864Z,98061.34
2023-05-16T11:04:00.659Z,98062.94
2023-05-16T11:06:43.367Z,98059.25
2023-05-16T11:09:11.152Z,98059.25
2023-05-16T11:11:58.469Z,98059.25
2023-05-16T11:14:32.514Z,98056.59
2023-05-16T11:17:14.259Z,98066.22
2023-05-16T11:19:49.001Z,98051.84
2023-05-16T11:22:27.244Z,98050.19
2023-05-16T11:24:59.096Z,98051.84
2023-05-16T11:27:37.683Z,98042.78
2023-05-16T11:30:05.226Z,98041.16
2023-05-16T11:32:37.851Z,98042.78
2023-05-16T11:35:08.847Z,98030.47
2023-05-16T11:37:36.713Z,98034.97
2023-05-16T11:40:07.025Z,98030.47
2023-05-16T11:42:40.219Z,98036.63
2023-05-16T11:45:09.691Z,98042.78
2023-05-16T11:47:38.875Z,98048.13
2023-05-16T11:50:10.829Z,98037.44
2023-05-16T11:52:38.883Z,98042.78
2023-05-16T11:55:08.124Z,98037.44
2023-05-16T11:57:35.651Z,98041.97
2023-05-16T12:00:25.144Z,98041.16
2023-05-16T12:02:54.710Z,98037.44
2023-05-16T12:05:27.329Z,98039.06
2023-05-16T12:07:56.731Z,98041.72
2023-05-16T12:10:24.303Z,98046.06
2023-05-16T12:12:52.870Z,98040.72
2023-05-16T12:15:21.536Z,98037.22
2023-05-16T12:17:49.380Z,98039.06
2023-05-16T12:20:17.443Z,98040.72
2023-05-16T12:22:46.083Z,98037.00
2023-05-16T12:25:36.054Z,98037.00
2023-05-16T12:28:04.891Z,98036.19
2023-05-16T12:30:33.004Z,98033.72
2023-05-16T12:33:07.661Z,98046.06
2023-05-16T12:35:38.812Z,98030.03
2023-05-16T12:38:11.647Z,98032.72
2023-05-16T12:40:40.905Z,98032.72
2023-05-16T12:43:14.970Z,98025.50
2023-05-16T12:45:45.792Z,98022.84
2023-05-16T12:48:14.232Z,98021.19
2023-05-16T12:50:42.057Z,98019.97
2023-05-16T12:53:14.412Z,98018.31
2023-05-16T12:55:43.579Z,98016.47
2023-05-16T12:58:11.492Z,98008.66
2023-05-16T13:00:39.376Z,98008.66
2023-05-16T13:03:07.771Z,98004.94
2023-05-16T13:05:36.352Z,98000.44
2023-05-16T13:08:04.376Z,98004.94
2023-05-16T13:10:32.052Z,98006.59
2023-05-16T13:13:00.320Z,98002.88
2023-05-16T13:15:28.592Z,98004.94
2023-05-16T13:17:56.322Z,98008.66
2023-05-16T13:20:23.903Z,98008.66
2023-05-16T13:22:51.232Z,98003.31
2023-05-16T13:25:18.896Z,98004.31
2023-05-16T13:27:46.396Z,98008.03
2023-05-16T13:30:14.028Z,98004.56
2023-05-16T13:32:42.431Z,97999.22
2023-05-16T13:35:10.344Z,97993.06
2023-05-16T13:37:39.397Z,97996.56
2023-05-16T13:40:10.367Z,97990.41
2023-05-16T13:42:38.728Z,97987.72
2023-05-16T13:45:07.037Z,97987.72
2023-05-16T13:47:34.531Z,97990.63
2023-05-16T13:50:09.185Z,97987.13
2023-05-16T13:52:38.101Z,97984.47
2023-05-16T13:55:07.223Z,97982.81
2023-05-16T13:57:34.756Z,97984.47
2023-05-16T14:02:40.563Z,97988.16
2023-05-16T14:05:09.465Z,97981.19
2023-05-16T14:07:36.865Z,97981.19
2023-05-16T14:10:06.829Z,97979.53
2023-05-16T14:12:34.337Z,97978.53
2023-05-16T14:15:02.064Z,97972.59
2023-05-16T14:17:29.540Z,97976.28
2023-05-16T14:19:57.338Z,97970.13
2023-05-16T14:22:24.634Z,97965.84
2023-05-16T14:24:52.183Z,97965.59
2023-05-16T14:27:21.569Z,97973.84
2023-05-16T14:29:49.059Z,97978.34
2023-05-16T14:32:16.651Z,97989.03
2023-05-16T14:34:44.513Z,97994.38
2023-05-16T14:37:12.129Z,97994.38
2023-05-16T14:39:41.910Z,97997.28
2023-05-16T14:42:09.172Z,98001.78
2023-05-16T14:44:36.714Z,98013.31
2023-05-16T14:47:04.468Z,98010.88
2023-05-16T14:49:32.372Z,98020.50
2023-05-16T14:51:59.983Z,98021.53
2023-05-16T14:54:27.505Z,98021.53
2023-05-16T14:56:55.732Z,98032.22
2023-05-16T14:59:23.336Z,98035.94
2023-05-16T15:01:50.801Z,98045.00
2023-05-16T15:04:18.819Z,98045.78
2023-05-16T15:06:46.227Z,98045.78
2023-05-16T15:09:14.032Z,98048.69
2023-05-16T15:11:41.563Z,98049.53
2023-05-16T15:14:12.099Z,98048.69
2023-05-16T15:16:39.529Z,98039.66
2023-05-16T15:19:07.203Z,98047.66
2023-05-16T15:21:34.507Z,98039.06
2023-05-16T15:24:02.428Z,98052.41
2023-05-16T15:26:29.969Z,98057.75
2023-05-16T15:28:57.516Z,98058.56
2023-05-16T15:31:24.966Z,98063.09
2023-05-16T15:33:52.705Z,98054.25
2023-05-16T15:36:20.026Z,98060.63
2023-05-16T15:38:47.661Z,98055.28
2023-05-16T15:41:26.895Z,98054.47
2023-05-16T15:44:03.492Z,98054.47
2023-05-16T15:46:33.123Z,98046.66
2023-05-16T15:49:01.153Z,98052.84
2023-05-16T15:51:28.462Z,98051.19
2023-05-16T15:53:56.145Z,98051.19
2023-05-16T15:56:23.547Z,98051.19
2023-05-16T15:58:51.588Z,98047.72
2023-05-16T16:01:19.239Z,98046.91
2023-05-16T16:03:47.104Z,98047.13
2023-05-16T16:06:24.604Z,98037.25
2023-05-16T16:08:52.527Z,98045.25
2023-05-16T16:11:23.459Z,98047.13
2023-05-16T16:13:51.396Z,98040.13
2023-05-16T16:16:18.925Z,98046.31
2023-05-16T16:18:46.714Z,98046.31
2023-05-16T16:21:14.164Z,98042.00
2023-05-16T16:23:42.574Z,98045.47
2023-05-16T16:26:09.978Z,98038.50
2023-05-16T16:28:37.649Z,98037.72
2023-05-16T16:31:05.155Z,98031.56
2023-05-16T16:33:34.557Z,98035.03
2023-05-16T16:36:02.124Z,98039.56
2023-05-16T16:38:29.977Z,98052.91
2023-05-16T16:40:57.432Z,98057.41
2023-05-16T16:43:25.372Z,98057.41
2023-05-16T16:45:53.128Z,98055.81
2023-05-16T16:48:20.931Z,98048.81
2023-05-16T16:50:48.287Z,98043.47
2023-05-16T16:53:15.829Z,98045.34
2023-05-16T16:55:43.349Z,98043.72
2023-05-16T16:58:11.045Z,98047.19
2023-05-16T17:00:38.373Z,98047.19
2023-05-16T17:03:06.409Z,98044.72
2023-05-16T17:05:33.849Z,98038.59
2023-05-16T17:08:01.619Z,98038.59
2023-05-16T17:10:29.126Z,98055.41
2023-05-16T17:13:02.824Z,98053.78
2023-05-16T17:15:30.233Z,98061.56
2023-05-16T17:17:57.920Z,98068.97
2023-05-16T17:20:25.221Z,98067.13
2023-05-16T17:22:53.087Z,98067.34
2023-05-16T17:25:20.611Z,98068.97
2023-05-16T17:27:48.200Z,98070.84
2023-05-16T17:30:17.062Z,98072.69
2023-05-16T17:32:46.236Z,98076.41
2023-05-16T17:35:13.596Z,98080.09
2023-05-16T17:37:42.283Z,98086.25
2023-05-16T17:40:12.782Z,98090.78
2023-05-16T17:42:40.542Z,98079.28
2023-05-16T17:45:08.913Z,98076.63
2023-05-16T17:47:36.449Z,98082.78
2023-05-16T17:50:05.572Z,98074.97
2023-05-16T17:52:34.948Z,98070.47
2023-05-16T17:55:02.297Z,98071.50
2023-05-16T17:57:30.465Z,98077.63
2023-05-16T17:59:57.749Z,98087.50
2023-05-16T18:02:25.590Z,98098.19
2023-05-16T18:04:53.140Z,98089.16
2023-05-16T18:07:20.715Z,98082.97
2023-05-16T18:09:48.134Z,98075.22
2023-05-16T18:12:15.891Z,98069.03
2023-05-16T18:14:45.250Z,98068.22
2023-05-16T18:17:13.444Z,98061.88
2023-05-16T18:19:41.322Z,98068.22
2023-05-16T18:22:10.116Z,98068.22
2023-05-16T18:24:37.967Z,98070.88
2023-05-16T18:27:05.846Z,98082.63
2023-05-16T18:29:33.234Z,98094.91
2023-05-16T18:32:00.879Z,98103.97
2023-05-16T18:34:28.410Z,98102.13
2023-05-16T18:36:56.456Z,98093.28
2023-05-16T18:39:23.904Z,98087.97
2023-05-16T18:41:51.674Z,98093.28
2023-05-16T18:44:19.077Z,98096.78
2023-05-16T18:46:47.059Z,98103.97
2023-05-16T18:49:14.542Z,98111.75
2023-05-16T18:51:42.259Z,98117.94
2023-05-16T18:54:09.548Z,98123.28
2023-05-16T18:56:37.432Z,98129.63
2023-05-16T18:59:04.754Z,98126.97
2023-05-16T19:01:32.705Z,98130.44
2023-05-16T19:04:00.124Z,98127.78
2023-05-16T19:06:27.796Z,98128.59
2023-05-16T19:08:55.206Z,98125.94
2023-05-16T19:11:22.816Z,98125.94
2023-05-16T19:13:50.219Z,98123.28
2023-05-16T19:16:17.943Z,98132.31
2023-05-16T19:18:45.394Z,98129.63
2023-05-16T19:21:13.660Z,98131.28
2023-05-16T19:23:41.256Z,98137.63
2023-05-16T19:26:09.102Z,98137.63
2023-05-16T19:28:37.521Z,98128.59
2023-05-16T19:31:05.306Z,98113.59
2023-05-16T19:33:32.709Z,98114.66
2023-05-16T19:36:01.034Z,98117.31
2023-05-16T19:38:28.351Z,98125.34
2023-05-16T19:40:56.491Z,98136.00
2023-05-16T19:43:26.189Z,98136.00
2023-05-16T19:45:53.765Z,98136.00
2023-05-16T19:48:21.219Z,98136.00
2023-05-16T19:50:48.824Z,98132.75
2023-05-16T19:53:16.163Z,98131.69
2023-05-16T19:55:43.810Z,98134.38
2023-05-16T19:58:11.325Z,98118.34
2023-05-16T20:00:39.179Z,98137.03
2023-05-16T20:03:06.642Z,98140.75
2023-05-16T20:05:34.376Z,98138.09
2023-05-16T20:08:01.751Z,98145.03
2023-05-16T20:10:29.372Z,98134.38
2023-05-16T20:12:56.742Z,98122.06
2023-05-16T20:15:24.938Z,98111.38
2023-05-16T20:17:52.534Z,98105.22
2023-05-16T20:20:20.325Z,98090.25
2023-05-16T20:22:47.590Z,98083.03
2023-05-16T20:25:15.205Z,98096.38
2023-05-16T20:27:42.505Z,98096.38
2023-05-16T20:30:10.745Z,98098.25
2023-05-16T20:32:38.081Z,98099.91
2023-05-16T20:35:09.080Z,98115.06
2023-05-16T20:37:36.553Z,98120.41
2023-05-16T20:40:06.047Z,98120.41
2023-05-16T20:42:33.509Z,98115.06
2023-05-16T20:45:01.459Z,98120.41
2023-05-16T20:47:28.929Z,98109.72
2023-05-16T20:49:56.572Z,98092.09
2023-05-16T20:52:23.961Z,98086.75
2023-05-16T20:54:51.486Z,98074.44
2023-05-16T20:57:18.732Z,98068.28
2023-05-16T20:59:46.550Z,98069.09
2023-05-16T21:02:13.868Z,98063.75
2023-05-16T21:04:41.618Z,98063.75
2023-05-16T21:07:11.216Z,98070.13
2023-05-16T21:09:39.701Z,98064.81
2023-05-16T21:12:07.473Z,98068.28
2023-05-16T21:14:35.076Z,98070.13
2023-05-16T21:17:02.317Z,98068.28
2023-05-16T21:19:34.063Z,98071.16
2023-05-16T21:22:03.831Z,98072.00
2023-05-16T21:24:35.282Z,98073.81
2023-05-16T21:27:03.762Z,98081.84
2023-05-16T21:29:31.675Z,98075.69
2023-05-16T21:31:59.064Z,98071.16
2023-05-16T21:34:26.841Z,98068.50
2023-05-16T21:36:54.259Z,98061.53
2023-05-16T21:39:21.930Z,98054.31
2023-05-16T21:41:49.374Z,98046.53
2023-05-16T21:44:18.440Z,98034.22
2023-05-16T21:46:45.888Z,98035.84
2023-05-16T21:49:14.134Z,98025.41
2023-05-16T21:51:41.445Z,98022.75
2023-05-16T21:54:09.014Z,98028.09
2023-05-16T21:56:36.704Z,98034.22
2023-05-16T21:59:04.237Z,98040.63
2023-05-16T22:01:31.724Z,98044.91
2023-05-16T22:03:59.525Z,98050.25
2023-05-16T22:06:26.996Z,98039.78
2023-05-16T22:08:55.166Z,98032.63
2023-05-16T22:11:22.680Z,98037.09
2023-05-16T22:13:51.263Z,98039.78
2023-05-16T22:16:18.717Z,98036.31
2023-05-16T22:18:46.402Z,98030.97
2023-05-16T22:21:16.163Z,98034.69
2023-05-16T22:23:43.728Z,98030.97
2023-05-16T22:26:11.074Z,98030.97
2023-05-16T22:28:38.600Z,98026.69
2023-05-16T22:31:05.909Z,98021.34
2023-05-16T22:33:33.554Z,98017.00
2023-05-16T22:36:03.147Z,98029.34
2023-05-16T22:38:31.695Z,98029.34
2023-05-16T22:40:59.181Z,98031.16
2023-05-16T22:43:26.678Z,98025.03
2023-05-16T22:45:54.051Z,98021.53
2023-05-16T22:48:21.603Z,98022.34
2023-05-16T22:50:48.945Z,98014.56
2023-05-16T22:53:16.638Z,98009.22
2023-05-16T22:55:43.958Z,98020.75
2023-05-16T22:58:11.896Z,98018.06
2023-05-16T23:00:39.262Z,98024.41
2023-05-16T23:03:06.973Z,98030.56
2023-05-16T23:05:34.382Z,98040.44
2023-05-16T23:08:03.194Z,98051.13
2023-05-16T23:10:31.419Z,98056.44
2023-05-16T23:12:58.978Z,98061.78
2023-05-16T23:15:26.565Z,98051.13
2023-05-16T23:17:54.315Z,98041.50
2023-05-16T23:20:22.431Z,98043.31
2023-05-16T23:22:49.994Z,98044.16
2023-05-16T23:25:17.370Z,98049.50
2023-05-16T23:27:44.915Z,98052.16
2023-05-16T23:30:12.424Z,98060.16
2023-05-16T23:32:40.142Z,98060.16
2023-05-16T23:35:08.179Z,98054.84
2023-05-16T23:37:36.030Z,98055.84
2023-05-16T23:40:03.803Z,98053.19
2023-05-16T23:42:31.352Z,98056.91
2023-05-16T23:44:58.671Z,98067.56
2023-05-16T23:47:26.511Z,98078.25
2023-05-16T23:49:53.891Z,98075.59
2023-05-16T23:52:21.423Z,98080.91
2023-05-16T23:54:48.886Z,98076.59
2023-05-16T23:57:17.999Z,98076.59
2023-05-16T23:59:45.438Z,98084.59
